Lanchester, United Kingdom
Current Conditions -  °F | °C
As of 2:50 PM on Wednesday 22 Oct 2014 (Local Time) from EGNT Reporting Station
Broken Clouds Broken Clouds  
Wind Chill: 52°   Ceiling: 2200
Heat Index: 52°   Visibility: 6mi
Dew Point: 46°   Wind: 18mph
Humidity: 82%   Direction: 270°W
Pressure: 30.03"   Gusts: NA
Location:  54.82°N, 1.74°W
Report Text: EGNT 221350Z 27016KT 9999 BKN022 11/08 Q1017
Loading
Personal Weather Stations






























Interactive Weather Map New forecast layout! Learn more

10-Day Weather Forecast

Advertisements
Track Severe Weather on mobile